createdAt,value
2022-11-07T00:01:47.005Z,90.94
2022-11-07T00:04:14.389Z,90.79
2022-11-07T00:06:41.958Z,91.09
2022-11-07T00:09:08.829Z,90.57
2022-11-07T00:11:35.862Z,90.72
2022-11-07T00:14:02.822Z,90.71
2022-11-07T00:16:30.781Z,90.50
2022-11-07T00:18:57.734Z,90.83
2022-11-07T00:21:24.727Z,90.44
2022-11-07T00:23:51.656Z,89.94
2022-11-07T00:26:18.908Z,90.09
2022-11-07T00:28:45.790Z,90.12
2022-11-07T00:31:14.415Z,90.02
2022-11-07T00:33:42.386Z,89.99
2022-11-07T00:36:10.750Z,90.26
2022-11-07T00:38:37.727Z,90.17
2022-11-07T00:41:06.055Z,90.23
2022-11-07T00:43:33.761Z,90.03
2022-11-07T00:46:02.774Z,90.07
2022-11-07T00:48:30.788Z,89.92
2022-11-07T00:50:58.169Z,90.37
2022-11-07T00:53:25.012Z,90.22
2022-11-07T00:55:51.973Z,89.98
2022-11-07T00:58:18.815Z,90.54
2022-11-07T01:00:45.784Z,90.32
2022-11-07T01:03:31.162Z,90.24
2022-11-07T01:06:00.247Z,89.85
2022-11-07T01:08:28.094Z,89.91
2022-11-07T01:10:55.732Z,89.88
2022-11-07T01:13:23.803Z,89.96
2022-11-07T01:15:51.486Z,89.79
2022-11-07T01:18:18.697Z,90.07
2022-11-07T01:20:45.757Z,89.85
2022-11-07T01:23:13.041Z,89.70
2022-11-07T01:25:40.465Z,89.94
2022-11-07T01:28:08.783Z,90.23
2022-11-07T01:30:43.406Z,89.65
2022-11-07T01:33:11.029Z,89.77
2022-11-07T01:35:38.704Z,89.54
2022-11-07T01:38:06.030Z,89.42
2022-11-07T01:40:52.870Z,89.51
2022-11-07T01:43:19.950Z,89.98
2022-11-07T01:45:46.703Z,89.51
2022-11-07T01:48:13.842Z,89.60
2022-11-07T01:50:40.846Z,89.55
2022-11-07T01:53:07.938Z,90.05
2022-11-07T01:55:36.054Z,90.07
2022-11-07T01:58:07.489Z,90.49
2022-11-07T02:00:35.739Z,90.68
2022-11-07T02:03:09.838Z,90.60
2022-11-07T02:05:47.433Z,90.02
2022-11-07T02:08:16.422Z,89.88
2022-11-07T02:10:44.589Z,89.79
2022-11-07T02:13:17.864Z,89.79
2022-11-07T02:15:44.795Z,90.00
2022-11-07T02:18:11.944Z,89.19
2022-11-07T02:20:39.197Z,89.05
2022-11-07T02:23:12.506Z,88.61
2022-11-07T02:25:39.740Z,88.36
2022-11-07T02:28:10.266Z,88.67
2022-11-07T02:30:39.068Z,88.63
2022-11-07T02:33:20.775Z,88.70
2022-11-07T02:35:50.178Z,89.51
2022-11-07T02:38:32.870Z,88.88
2022-11-07T02:41:12.253Z,89.02
2022-11-07T02:43:43.325Z,89.04
2022-11-07T02:46:13.236Z,89.63
2022-11-07T02:48:45.969Z,89.15
2022-11-07T02:51:13.055Z,89.32
2022-11-07T02:53:40.516Z,89.94
2022-11-07T02:56:07.811Z,90.50
2022-11-07T02:58:35.097Z,90.72
2022-11-07T03:01:07.236Z,90.79
2022-11-07T03:03:44.806Z,90.78
2022-11-07T03:06:16.705Z,90.98
2022-11-07T03:08:44.167Z,91.42
2022-11-07T03:11:12.220Z,91.19
2022-11-07T03:13:39.697Z,90.70
2022-11-07T03:16:07.917Z,89.96
2022-11-07T03:18:35.534Z,89.56
2022-11-07T03:21:02.973Z,89.49
2022-11-07T03:23:30.835Z,89.20
2022-11-07T03:25:57.925Z,88.32
2022-11-07T03:28:25.176Z,88.01
2022-11-07T03:30:52.437Z,87.47
2022-11-07T03:33:19.373Z,87.47
2022-11-07T03:35:46.441Z,87.27
2022-11-07T03:38:13.517Z,87.20
2022-11-07T03:40:40.622Z,86.91
2022-11-07T03:43:07.461Z,86.67
2022-11-07T03:45:34.319Z,86.32
2022-11-07T03:48:01.283Z,86.20
2022-11-07T03:50:28.365Z,86.05
2022-11-07T03:52:55.270Z,85.93
2022-11-07T03:55:22.314Z,86.01
2022-11-07T03:57:49.379Z,85.67
2022-11-07T04:00:17.850Z,85.75
2022-11-07T04:02:45.416Z,85.93
2022-11-07T04:05:12.793Z,85.96
2022-11-07T04:07:39.632Z,86.30
2022-11-07T04:10:07.038Z,86.07
2022-11-07T04:12:52.685Z,85.67
2022-11-07T04:15:38.485Z,85.86
2022-11-07T04:18:05.482Z,86.00
2022-11-07T04:20:32.350Z,85.85
2022-11-07T04:22:59.231Z,85.88
2022-11-07T04:25:44.575Z,86.09
2022-11-07T04:28:11.638Z,86.06
2022-11-07T04:30:38.504Z,85.53
2022-11-07T04:33:05.437Z,85.96
2022-11-07T04:35:33.599Z,85.77
2022-11-07T04:38:01.578Z,85.75
2022-11-07T04:40:29.645Z,85.66
2022-11-07T04:42:57.155Z,86.04
2022-11-07T04:45:24.268Z,85.62
2022-11-07T04:47:51.350Z,85.58
2022-11-07T04:50:19.866Z,85.71
2022-11-07T04:52:47.697Z,85.48
2022-11-07T04:55:23.679Z,85.69
2022-11-07T04:57:50.988Z,85.81
2022-11-07T05:00:18.911Z,85.56
2022-11-07T05:02:47.059Z,85.97
2022-11-07T05:05:14.412Z,85.92
2022-11-07T05:07:41.776Z,85.50
2022-11-07T05:10:14.622Z,86.03
2022-11-07T05:12:41.504Z,86.23
2022-11-07T05:15:09.369Z,86.46
2022-11-07T05:17:36.149Z,86.56
2022-11-07T05:20:03.932Z,86.65
2022-11-07T05:22:52.342Z,86.18
2022-11-07T05:25:23.240Z,86.14
2022-11-07T05:27:55.412Z,85.98
2022-11-07T05:30:22.304Z,85.65
2022-11-07T05:32:49.524Z,85.85
2022-11-07T05:35:16.553Z,85.96
2022-11-07T05:37:43.672Z,85.88
2022-11-07T05:40:11.221Z,85.54
2022-11-07T05:42:38.326Z,85.29
2022-11-07T05:45:06.221Z,85.35
2022-11-07T05:47:33.188Z,85.47
2022-11-07T05:50:00.213Z,85.34
2022-11-07T05:52:27.509Z,85.22
2022-11-07T05:54:54.669Z,84.85
2022-11-07T05:57:21.672Z,85.16
2022-11-07T05:59:48.608Z,84.81
2022-11-07T06:02:16.054Z,84.74
2022-11-07T06:04:43.317Z,85.13
2022-11-07T06:07:10.617Z,85.45
2022-11-07T06:09:37.495Z,85.34
2022-11-07T06:12:05.562Z,84.96
2022-11-07T06:14:33.098Z,84.77
2022-11-07T06:16:59.994Z,84.70
2022-11-07T06:19:27.041Z,84.49
2022-11-07T06:21:54.048Z,84.43
2022-11-07T06:24:20.970Z,84.37
2022-11-07T06:26:49.075Z,84.57
2022-11-07T06:29:16.209Z,84.47
2022-11-07T06:31:43.241Z,84.57
2022-11-07T06:34:10.017Z,84.23
2022-11-07T06:36:37.027Z,84.06
2022-11-07T06:39:04.110Z,84.12
2022-11-07T06:41:31.255Z,84.21
2022-11-07T06:43:58.452Z,84.13
2022-11-07T06:46:25.360Z,84.47
2022-11-07T06:48:52.230Z,84.05
2022-11-07T06:51:19.250Z,83.55
2022-11-07T06:53:46.425Z,83.54
2022-11-07T06:56:16.002Z,84.03
2022-11-07T06:58:43.340Z,83.86
2022-11-07T07:01:15.577Z,83.84
2022-11-07T07:03:43.919Z,84.18
2022-11-07T07:06:13.999Z,84.66
2022-11-07T07:08:41.169Z,85.67
2022-11-07T07:11:10.468Z,85.53
2022-11-07T07:13:38.535Z,86.10
2022-11-07T07:16:06.532Z,86.11
2022-11-07T07:18:34.582Z,86.31
2022-11-07T07:21:09.390Z,86.74
2022-11-07T07:23:37.401Z,86.63
2022-11-07T07:26:12.379Z,86.63
2022-11-07T07:28:39.676Z,86.69
2022-11-07T07:31:20.793Z,86.86
2022-11-07T07:33:48.700Z,87.04
2022-11-07T07:36:20.515Z,87.30
2022-11-07T07:38:49.557Z,87.35
2022-11-07T07:41:17.174Z,87.33
2022-11-07T07:43:44.848Z,86.79
2022-11-07T07:46:15.564Z,87.16
2022-11-07T07:48:42.654Z,88.13
2022-11-07T07:51:09.614Z,88.76
2022-11-07T07:53:36.665Z,88.89
2022-11-07T07:56:05.897Z,88.37
2022-11-07T07:58:33.707Z,88.37
2022-11-07T08:01:00.928Z,88.25
2022-11-07T08:03:32.029Z,87.87
2022-11-07T08:06:07.219Z,87.67
2022-11-07T08:08:38.162Z,87.60
2022-11-07T08:11:07.143Z,87.69
2022-11-07T08:13:34.295Z,87.52
2022-11-07T08:16:03.925Z,87.81
2022-11-07T08:18:31.745Z,87.52
2022-11-07T08:20:59.705Z,87.23
2022-11-07T08:23:26.670Z,88.03
2022-11-07T08:25:56.169Z,87.92
2022-11-07T08:28:25.526Z,87.68
2022-11-07T08:31:09.375Z,87.44
2022-11-07T08:33:36.785Z,86.98
2022-11-07T08:36:05.500Z,86.87
2022-11-07T08:38:33.867Z,86.30
2022-11-07T08:41:00.904Z,85.69
2022-11-07T08:43:28.126Z,85.37
2022-11-07T08:45:55.784Z,85.51
2022-11-07T08:48:24.141Z,84.58
2022-11-07T08:50:55.475Z,84.63
2022-11-07T08:53:23.533Z,84.56
2022-11-07T08:55:50.466Z,84.65
2022-11-07T08:58:18.456Z,84.47
2022-11-07T09:00:45.595Z,84.35
2022-11-07T09:06:01.106Z,84.32
2022-11-07T09:08:28.303Z,83.94
2022-11-07T09:10:55.246Z,83.30
2022-11-07T09:13:22.544Z,83.37
2022-11-07T09:15:51.354Z,82.99
2022-11-07T09:18:20.225Z,82.84
2022-11-07T09:20:47.824Z,82.59
2022-11-07T09:23:15.443Z,82.37
2022-11-07T09:25:42.895Z,82.69
2022-11-07T09:28:10.014Z,82.20
2022-11-07T09:30:37.343Z,82.44
2022-11-07T09:33:04.653Z,82.09
2022-11-07T09:35:31.768Z,81.52
2022-11-07T09:37:59.056Z,81.51
2022-11-07T09:41:03.173Z,81.74
2022-11-07T09:44:12.539Z,81.54
2022-11-07T09:46:54.489Z,80.57
2022-11-07T09:49:46.646Z,80.42
2022-11-07T09:52:37.057Z,80.08
2022-11-07T09:55:27.784Z,80.19
2022-11-07T09:58:00.711Z,80.27
2022-11-07T10:00:31.150Z,80.41
2022-11-07T10:03:00.916Z,80.19
2022-11-07T10:06:00.092Z,80.18
2022-11-07T10:08:46.147Z,80.38
2022-11-07T10:11:35.277Z,80.78
2022-11-07T10:14:22.307Z,80.59
2022-11-07T10:17:43.387Z,79.79
2022-11-07T10:20:29.866Z,79.62
2022-11-07T10:23:04.015Z,79.33
2022-11-07T10:26:05.102Z,79.14
2022-11-07T10:28:33.013Z,79.06
2022-11-07T10:31:02.668Z,78.81
2022-11-07T10:33:55.071Z,77.66
2022-11-07T10:36:31.418Z,78.09
2022-11-07T10:38:59.167Z,78.50
2022-11-07T10:41:31.919Z,78.87
2022-11-07T10:44:03.843Z,78.56
2022-11-07T10:46:41.703Z,78.51
2022-11-07T10:49:23.864Z,78.77
2022-11-07T10:51:52.164Z,78.59
2022-11-07T10:54:40.485Z,78.55
2022-11-07T10:57:11.909Z,78.92
2022-11-07T11:00:08.575Z,79.10
2022-11-07T11:02:48.055Z,78.77
2022-11-07T11:05:41.442Z,78.16
2022-11-07T11:08:16.354Z,78.06
2022-11-07T11:10:44.607Z,77.97
2022-11-07T11:13:30.277Z,78.24
2022-11-07T11:16:05.275Z,78.61
2022-11-07T11:18:57.624Z,78.87
2022-11-07T11:21:25.792Z,78.37
2022-11-07T11:23:54.865Z,78.43
2022-11-07T11:26:28.052Z,78.66
2022-11-07T11:29:17.537Z,78.57
2022-11-07T11:31:57.184Z,78.79
2022-11-07T11:35:02.487Z,78.64
2022-11-07T11:37:32.779Z,78.61
2022-11-07T11:40:07.767Z,78.10
2022-11-07T11:42:46.206Z,78.20
2022-11-07T11:45:33.797Z,78.01
2022-11-07T11:48:11.244Z,77.87
2022-11-07T11:50:55.097Z,77.72
2022-11-07T11:53:23.319Z,78.18
2022-11-07T11:56:13.666Z,77.85
2022-11-07T11:58:53.692Z,78.39
2022-11-07T12:01:41.868Z,78.10
2022-11-07T12:04:54.203Z,77.44
2022-11-07T12:07:43.343Z,77.00
2022-11-07T12:10:29.849Z,76.36
2022-11-07T12:13:15.201Z,76.48
2022-11-07T12:15:57.654Z,75.63
2022-11-07T12:19:02.770Z,75.31
2022-11-07T12:21:48.751Z,74.71
2022-11-07T12:24:24.840Z,74.15
2022-11-07T12:27:04.608Z,73.77
2022-11-07T12:29:54.157Z,74.05
2022-11-07T12:32:48.157Z,73.87
2022-11-07T12:35:36.627Z,73.38
2022-11-07T12:38:03.691Z,73.03
2022-11-07T12:41:00.025Z,73.30
2022-11-07T12:43:49.942Z,73.26
2022-11-07T12:46:26.836Z,72.36
2022-11-07T12:49:07.989Z,72.36
2022-11-07T12:51:50.199Z,73.60
2022-11-07T12:54:19.994Z,73.85
2022-11-07T12:56:48.691Z,73.90
2022-11-07T12:59:28.573Z,73.86
2022-11-07T13:02:16.895Z,74.05
2022-11-07T13:05:01.059Z,73.80
2022-11-07T13:07:46.355Z,73.72
2022-11-07T13:10:21.713Z,73.59
2022-11-07T13:12:56.053Z,73.49
2022-11-07T13:15:23.695Z,73.83
2022-11-07T13:17:51.572Z,73.68
2022-11-07T13:20:21.596Z,73.74
2022-11-07T13:22:50.908Z,73.69
2022-11-07T13:25:17.954Z,73.29
2022-11-07T13:28:06.524Z,73.35
2022-11-07T13:30:40.158Z,73.32
2022-11-07T13:33:24.315Z,72.82
2022-11-07T13:35:57.755Z,72.64
2022-11-07T13:38:27.734Z,72.94
2022-11-07T13:41:04.636Z,73.45
2022-11-07T13:43:54.366Z,73.04
2022-11-07T13:46:22.178Z,73.04
2022-11-07T13:48:51.445Z,72.61
2022-11-07T13:51:43.183Z,72.43
2022-11-07T13:54:34.733Z,72.62
2022-11-07T13:57:11.026Z,72.75
2022-11-07T14:00:05.594Z,72.91
2022-11-07T14:03:04.076Z,73.20
2022-11-07T14:05:36.868Z,73.18
2022-11-07T14:08:15.828Z,72.73
2022-11-07T14:10:49.451Z,72.74
2022-11-07T14:13:19.706Z,72.80
2022-11-07T14:15:54.284Z,72.82
2022-11-07T14:18:23.546Z,72.85
2022-11-07T14:20:53.900Z,73.31
2022-11-07T14:23:23.721Z,73.70
2022-11-07T14:26:22.691Z,73.91
2022-11-07T14:28:50.879Z,74.25
2022-11-07T14:31:19.333Z,74.21
2022-11-07T14:33:52.083Z,74.33
2022-11-07T14:36:20.426Z,74.43
2022-11-07T14:39:00.493Z,74.25
2022-11-07T14:41:27.887Z,74.28
2022-11-07T14:43:57.399Z,74.47
2022-11-07T14:46:25.790Z,74.63
2022-11-07T14:48:53.563Z,74.86
2022-11-07T14:51:27.159Z,75.40
2022-11-07T14:54:00.312Z,75.91
2022-11-07T14:56:35.687Z,76.90
2022-11-07T14:59:04.079Z,77.30
2022-11-07T15:01:33.833Z,77.74
2022-11-07T15:04:14.731Z,77.92
2022-11-07T15:06:47.567Z,78.27
2022-11-07T15:09:15.440Z,79.17
2022-11-07T15:11:56.098Z,79.85
2022-11-07T15:14:26.672Z,80.65
2022-11-07T15:16:54.542Z,81.35
2022-11-07T15:19:23.865Z,82.00
2022-11-07T15:22:01.053Z,82.53
2022-11-07T15:24:46.460Z,83.05
2022-11-07T15:27:13.581Z,83.77
2022-11-07T15:29:50.801Z,84.49
2022-11-07T15:32:20.478Z,84.71
2022-11-07T15:35:12.506Z,85.05
2022-11-07T15:37:38.677Z,85.73
2022-11-07T15:40:18.768Z,86.19
2022-11-07T15:42:46.597Z,86.76
2022-11-07T15:45:13.579Z,87.45
2022-11-07T15:47:40.975Z,87.54
2022-11-07T15:50:18.435Z,88.03
2022-11-07T15:52:47.334Z,88.05
2022-11-07T15:55:19.758Z,88.17
2022-11-07T15:57:49.716Z,88.20
2022-11-07T16:00:42.223Z,88.31
2022-11-07T16:03:17.705Z,88.16
2022-11-07T16:05:47.971Z,88.20
2022-11-07T16:08:18.439Z,88.85
2022-11-07T16:10:48.856Z,89.02
2022-11-07T16:13:16.499Z,89.45
2022-11-07T16:15:50.361Z,90.12
2022-11-07T16:18:24.289Z,90.22
2022-11-07T16:20:54.948Z,90.28
2022-11-07T16:23:25.905Z,90.50
2022-11-07T16:26:22.564Z,90.61
2022-11-07T16:28:50.226Z,90.92
2022-11-07T16:31:17.508Z,91.46
2022-11-07T16:33:44.790Z,91.85
2022-11-07T16:36:25.390Z,91.82
2022-11-07T16:38:53.293Z,92.38
2022-11-07T16:41:20.428Z,92.61
2022-11-07T16:43:47.885Z,92.69
2022-11-07T16:46:17.117Z,92.51
2022-11-07T16:48:46.019Z,92.82
2022-11-07T16:51:24.350Z,92.69
2022-11-07T16:54:09.667Z,92.96
2022-11-07T16:56:38.119Z,93.33
2022-11-07T16:59:08.004Z,93.25
2022-11-07T17:01:36.412Z,93.19
2022-11-07T17:04:04.029Z,93.31
2022-11-07T17:06:33.755Z,93.72
2022-11-07T17:09:08.954Z,93.72
2022-11-07T17:11:40.475Z,93.64
2022-11-07T17:14:07.582Z,93.99
2022-11-07T17:16:36.990Z,93.75
2022-11-07T17:19:05.513Z,93.66
2022-11-07T17:21:37.628Z,93.73
2022-11-07T17:24:05.212Z,94.18
2022-11-07T17:26:35.859Z,94.37
2022-11-07T17:29:04.815Z,94.81
2022-11-07T17:31:31.872Z,94.95
2022-11-07T17:33:59.341Z,95.00
2022-11-07T17:36:35.332Z,94.94
2022-11-07T17:39:11.889Z,94.79
2022-11-07T17:41:43.745Z,94.52
2022-11-07T17:44:11.781Z,94.58
2022-11-07T17:46:49.153Z,94.61
2022-11-07T17:49:18.975Z,94.86
2022-11-07T17:51:46.647Z,94.87
2022-11-07T17:54:15.339Z,95.42
2022-11-07T17:56:43.098Z,96.00
2022-11-07T17:59:16.297Z,95.77
2022-11-07T18:01:44.112Z,96.17
2022-11-07T18:04:13.363Z,95.90
2022-11-07T18:06:42.900Z,96.08
2022-11-07T18:09:15.055Z,96.13
2022-11-07T18:11:42.220Z,96.12
2022-11-07T18:14:11.130Z,96.36
2022-11-07T18:16:38.252Z,96.46
2022-11-07T18:19:06.208Z,96.79
2022-11-07T18:21:33.607Z,96.55
2022-11-07T18:24:00.861Z,96.81
2022-11-07T18:26:31.087Z,96.66
2022-11-07T18:29:02.167Z,96.78
2022-11-07T18:31:29.928Z,96.94
2022-11-07T18:34:00.310Z,97.21
2022-11-07T18:36:28.123Z,96.84
2022-11-07T18:38:55.140Z,96.62
2022-11-07T18:41:24.227Z,96.78
2022-11-07T18:43:51.325Z,96.51
2022-11-07T18:46:19.456Z,96.00
2022-11-07T18:48:46.827Z,95.59
2022-11-07T18:51:20.966Z,95.17
2022-11-07T18:53:49.268Z,95.71
2022-11-07T18:56:22.806Z,95.55
2022-11-07T18:58:49.888Z,95.62
2022-11-07T19:01:20.320Z,95.84
2022-11-07T19:03:48.147Z,96.60
2022-11-07T19:06:17.883Z,97.19
2022-11-07T19:08:49.728Z,97.09
2022-11-07T19:11:36.176Z,96.53
2022-11-07T19:14:03.740Z,97.19
2022-11-07T19:16:30.947Z,97.29
2022-11-07T19:19:02.121Z,97.18
2022-11-07T19:21:29.152Z,96.94
2022-11-07T19:23:56.248Z,97.21
2022-11-07T19:26:24.695Z,97.39
2022-11-07T19:28:53.843Z,97.88
2022-11-07T19:31:21.036Z,98.12
2022-11-07T19:33:47.990Z,97.79
2022-11-07T19:36:23.527Z,97.70
2022-11-07T19:38:51.234Z,97.95
2022-11-07T19:41:18.773Z,98.13
2022-11-07T19:43:50.060Z,98.66
2022-11-07T19:46:20.337Z,98.39
2022-11-07T19:48:48.488Z,97.92
2022-11-07T19:51:21.552Z,97.91
2022-11-07T19:53:55.198Z,98.02
2022-11-07T19:56:23.896Z,97.83
2022-11-07T19:58:51.207Z,97.28
2022-11-07T20:01:21.798Z,96.84
2022-11-07T20:03:51.836Z,96.83
2022-11-07T20:06:27.455Z,96.84
2022-11-07T20:08:54.581Z,97.12
2022-11-07T20:11:24.306Z,96.88
2022-11-07T20:13:52.917Z,96.66
2022-11-07T20:16:20.011Z,96.89
2022-11-07T20:18:47.083Z,96.61
2022-11-07T20:21:16.806Z,96.90
2022-11-07T20:23:45.499Z,96.73
2022-11-07T20:26:16.226Z,96.44
2022-11-07T20:28:43.670Z,96.70
2022-11-07T20:31:23.233Z,97.04
2022-11-07T20:33:50.454Z,97.43
2022-11-07T20:36:18.535Z,97.80
2022-11-07T20:38:46.252Z,97.52
2022-11-07T20:41:14.112Z,97.75
2022-11-07T20:43:43.788Z,97.98
2022-11-07T20:46:15.049Z,97.78
2022-11-07T20:48:42.394Z,97.54
2022-11-07T20:51:12.015Z,97.29
2022-11-07T20:53:39.985Z,97.51
2022-11-07T20:56:08.272Z,98.06
2022-11-07T20:58:37.570Z,98.43
2022-11-07T21:01:06.563Z,97.88
2022-11-07T21:03:34.925Z,98.59
2022-11-07T21:06:02.152Z,99.10
2022-11-07T21:08:33.162Z,99.42
2022-11-07T21:11:03.197Z,99.78
2022-11-07T21:13:30.127Z,99.68
2022-11-07T21:15:57.428Z,99.06
2022-11-07T21:18:25.586Z,98.51
2022-11-07T21:21:26.252Z,98.24
2022-11-07T21:23:54.593Z,98.64
2022-11-07T21:26:26.758Z,98.54
2022-11-07T21:28:55.085Z,98.78
2022-11-07T21:31:25.051Z,98.76
2022-11-07T21:33:52.432Z,98.66
2022-11-07T21:36:21.947Z,98.42
2022-11-07T21:38:49.042Z,98.48
2022-11-07T21:41:16.740Z,98.64
2022-11-07T21:43:52.809Z,98.50
2022-11-07T21:46:22.841Z,98.44
2022-11-07T21:48:50.262Z,98.52
2022-11-07T21:51:26.101Z,98.45
2022-11-07T21:53:53.539Z,98.56
2022-11-07T21:56:22.923Z,99.31
2022-11-07T21:58:51.967Z,99.49
2022-11-07T22:01:21.185Z,99.68
2022-11-07T22:04:06.230Z,99.40
2022-11-07T22:06:36.795Z,99.43
2022-11-07T22:09:05.325Z,99.38
2022-11-07T22:11:32.313Z,99.44
2022-11-07T22:13:59.480Z,99.26
2022-11-07T22:16:26.781Z,98.91
2022-11-07T22:18:53.864Z,98.88
2022-11-07T22:21:23.380Z,99.15
2022-11-07T22:23:51.481Z,98.78
2022-11-07T22:26:21.229Z,98.48
2022-11-07T22:28:49.008Z,98.75
2022-11-07T22:31:22.814Z,98.66
2022-11-07T22:33:52.031Z,98.71
2022-11-07T22:36:19.448Z,98.67
2022-11-07T22:38:46.585Z,98.67
2022-11-07T22:41:19.692Z,98.60
2022-11-07T22:43:47.665Z,98.44
2022-11-07T22:46:16.933Z,98.46
2022-11-07T22:48:45.386Z,98.47
2022-11-07T22:51:14.649Z,99.41
2022-11-07T22:53:41.896Z,100.00
2022-11-07T22:56:12.019Z,100.00
2022-11-07T22:58:39.773Z,100.00
2022-11-07T23:01:13.446Z,100.00
2022-11-07T23:03:40.339Z,100.00
2022-11-07T23:06:07.553Z,100.00
2022-11-07T23:08:35.387Z,100.00
2022-11-07T23:11:40.519Z,100.00
2022-11-07T23:14:00.521Z,100.00
2022-11-07T23:16:35.095Z,100.00
2022-11-07T23:19:05.007Z,99.51
2022-11-07T23:21:33.089Z,99.46
2022-11-07T23:24:01.202Z,99.74
2022-11-07T23:26:33.938Z,99.54
2022-11-07T23:29:10.771Z,99.29
2022-11-07T23:31:43.149Z,99.50
2022-11-07T23:34:10.947Z,99.50
2022-11-07T23:36:38.130Z,99.43
2022-11-07T23:39:07.760Z,99.51
2022-11-07T23:41:35.229Z,99.43
2022-11-07T23:44:02.695Z,99.71
2022-11-07T23:46:48.246Z,100.00
2022-11-07T23:49:33.813Z,100.00
2022-11-07T23:52:00.928Z,100.00
2022-11-07T23:54:46.161Z,100.00
2022-11-07T23:57:13.325Z,100.00
2022-11-07T23:59:59.265Z,99.75
